Time;durP1;ratioP1;P1;durP2;ratioP2;P2;SDS_P1;SDS_P2;PMS_P1;PMS_P2;Temp;Humidity;BMP_temperature;BMP_pressure;BME280_temperature;BME280_humidity;BME280_pressure;Samples;Min_cycle;Max_cycle;Signal;HPM_P1;HPM_P2
2022/09/17 00:01:15;;;;;;;3.20;2.60;;;;;;;-145.23;100.00;58621.06;4990477;28;20254;-54
2022/09/17 00:03:42;;;;;;;8.03;3.27;;;;;;;-145.23;100.00;58621.06;5004714;28;20237;-54
2022/09/17 00:06:12;;;;;;;6.67;3.60;;;;;;;-145.23;100.00;58621.06;4997464;28;20239;-54
2022/09/17 00:08:40;;;;;;;8.13;4.33;;;;;;;-145.23;100.00;58621.06;4999356;28;20711;-54
2022/09/17 00:11:07;;;;;;;3.53;2.87;;;;;;;-145.23;100.00;58621.06;4999904;28;21218;-54
2022/09/17 00:13:34;;;;;;;3.63;2.83;;;;;;;-145.23;100.00;58621.06;5007168;28;20229;-54
2022/09/17 00:16:01;;;;;;;4.67;2.77;;;;;;;-145.23;100.00;58621.06;4993574;28;20233;-54
2022/09/17 00:18:27;;;;;;;7.20;3.27;;;;;;;-145.23;100.00;58621.06;5000642;28;20238;-55
2022/09/17 00:20:54;;;;;;;7.67;3.73;;;;;;;-145.23;100.00;58621.06;4994367;28;20240;-54
2022/09/17 00:23:22;;;;;;;6.73;2.80;;;;;;;-145.23;100.00;58621.06;5005215;28;20821;-59
2022/09/17 00:25:48;;;;;;;5.13;3.07;;;;;;;-145.23;100.00;58621.06;4987955;28;20738;-55
2022/09/17 00:28:15;;;;;;;3.23;2.50;;;;;;;-145.23;100.00;58621.06;4998592;28;20244;-55
2022/09/17 00:30:42;;;;;;;11.53;3.43;;;;;;;-145.23;100.00;58621.06;5001647;28;20229;-55
2022/09/17 00:33:10;;;;;;;7.37;3.33;;;;;;;-145.23;100.00;58621.06;4999603;28;20237;-55
2022/09/17 00:35:37;;;;;;;6.30;3.83;;;;;;;-145.23;100.00;58621.06;5001272;28;25225;-53
2022/09/17 00:38:04;;;;;;;5.50;2.83;;;;;;;-145.23;100.00;58621.06;5001459;28;20244;-54
2022/09/17 00:40:31;;;;;;;6.10;2.97;;;;;;;-145.23;100.00;58621.06;4996502;28;20240;-54
2022/09/17 00:42:58;;;;;;;5.07;3.00;;;;;;;-145.23;100.00;58621.06;4993711;28;20249;-54
2022/09/17 00:45:25;;;;;;;9.53;3.77;;;;;;;-145.23;100.00;58621.06;5005801;28;20240;-52
2022/09/17 00:47:57;;;;;;;5.67;3.20;;;;;;;-145.23;100.00;58621.06;4990749;28;20234;-53
2022/09/17 00:50:27;;;;;;;7.77;2.90;;;;;;;-145.23;100.00;58621.06;4986380;28;20234;-52
2022/09/17 00:52:57;;;;;;;4.83;2.30;;;;;;;-145.23;100.00;58621.06;4999748;28;20240;-53
2022/09/17 00:55:27;;;;;;;7.30;3.27;;;;;;;-145.23;100.00;58621.06;4999408;28;20237;-54
2022/09/17 00:57:57;;;;;;;7.53;2.57;;;;;;;-145.23;100.00;58621.06;4994942;28;20237;-55
2022/09/17 01:00:24;;;;;;;5.03;1.90;;;;;;;-145.23;100.00;58621.06;4998032;28;20849;-54
2022/09/17 01:02:52;;;;;;;6.10;2.53;;;;;;;-145.23;100.00;58621.06;4991166;28;20234;-55
2022/09/17 01:05:21;;;;;;;4.17;2.13;;;;;;;-145.23;100.00;58621.06;5003453;28;20233;-53
2022/09/17 01:07:58;;;;;;;3.70;2.03;;;;;;;-145.23;100.00;58621.06;4993505;28;20237;-52
2022/09/17 01:10:38;;;;;;;7.17;2.37;;;;;;;-145.23;100.00;58621.06;4994815;28;20709;-57
2022/09/17 01:13:16;;;;;;;5.27;2.17;;;;;;;-145.23;100.00;58621.06;5000151;28;20424;-54
2022/09/17 01:15:48;;;;;;;5.37;2.07;;;;;;;-145.23;100.00;58621.06;4985094;28;20300;-54
2022/09/17 01:18:27;;;;;;;2.00;1.80;;;;;;;-145.23;100.00;58621.06;4996964;28;21046;-54
2022/09/17 01:21:35;;;;;;;5.37;3.03;;;;;;;-145.23;100.00;58621.06;4980382;28;20799;-54
2022/09/17 01:24:43;;;;;;;9.80;2.93;;;;;;;-145.23;100.00;58621.06;4984546;28;21083;-53
2022/09/17 01:27:34;;;;;;;5.43;2.30;;;;;;;-145.23;100.00;58621.06;4990531;28;20241;-53
2022/09/17 01:30:15;;;;;;;3.60;2.63;;;;;;;-145.23;100.00;58621.06;4991615;28;20610;-54
2022/09/17 01:32:45;;;;;;;7.53;2.60;;;;;;;-145.23;100.00;58621.06;4996350;28;20320;-53
2022/09/17 01:35:18;;;;;;;2.93;2.53;;;;;;;-145.23;100.00;58621.06;4994375;28;20698;-53
2022/09/17 01:37:49;;;;;;;2.70;1.93;;;;;;;-145.23;100.00;58621.06;4985932;28;20229;-58
2022/09/17 01:40:18;;;;;;;9.10;2.53;;;;;;;-145.23;100.00;58621.06;4993656;28;20257;-53
2022/09/17 01:42:49;;;;;;;2.00;1.83;;;;;;;-145.23;100.00;58621.06;4984752;28;20708;-53
2022/09/17 01:45:21;;;;;;;8.10;2.70;;;;;;;-145.23;100.00;58621.06;5003649;28;20657;-53
2022/09/17 01:47:52;;;;;;;2.87;2.13;;;;;;;-145.23;100.00;58621.06;4988069;28;20238;-53
2022/09/17 01:50:23;;;;;;;9.43;2.93;;;;;;;-145.23;100.00;58621.06;4997439;28;20233;-53
2022/09/17 01:52:51;;;;;;;3.13;1.93;;;;;;;-145.23;100.00;58621.06;4986558;28;20229;-53
2022/09/17 01:55:18;;;;;;;4.30;3.13;;;;;;;-145.23;100.00;58621.06;5005933;28;20353;-53
2022/09/17 01:57:48;;;;;;;8.33;2.70;;;;;;;-145.23;100.00;58621.06;5001054;28;20683;-53
2022/09/17 02:00:16;;;;;;;4.90;1.80;;;;;;;-145.23;100.00;58621.06;5001470;28;21139;-54
2022/09/17 02:02:47;;;;;;;6.47;2.37;;;;;;;-145.23;100.00;58621.06;4998549;28;20647;-54
2022/09/17 02:05:18;;;;;;;2.57;2.17;;;;;;;-145.23;100.00;58621.06;5001370;28;20236;-54
2022/09/17 02:07:49;;;;;;;5.60;2.50;;;;;;;-145.23;100.00;58621.06;5007348;28;20230;-54
2022/09/17 02:10:18;;;;;;;10.10;2.63;;;;;;;-145.23;100.00;58621.06;4986574;28;21875;-54
2022/09/17 02:12:47;;;;;;;2.53;2.23;;;;;;;-145.23;100.00;58621.06;5003307;28;20229;-53
2022/09/17 02:15:17;;;;;;;6.30;2.60;;;;;;;-145.23;100.00;58621.06;5001550;28;20646;-54
2022/09/17 02:17:48;;;;;;;7.90;2.73;;;;;;;-145.23;100.00;58621.06;5003323;28;20631;-54
2022/09/17 02:20:16;;;;;;;4.37;2.37;;;;;;;-145.23;100.00;58621.06;4999784;28;20225;-52
2022/09/17 02:22:48;;;;;;;8.30;3.60;;;;;;;-145.23;100.00;58621.06;5002571;28;20447;-53
2022/09/17 02:25:18;;;;;;;9.53;2.77;;;;;;;-145.23;100.00;58621.06;4996524;28;20619;-53
2022/09/17 02:27:53;;;;;;;6.43;3.60;;;;;;;-145.23;100.00;58621.06;5007984;28;20233;-53
2022/09/17 02:30:19;;;;;;;4.30;2.43;;;;;;;-145.23;100.00;58621.06;5004818;28;20236;-54
2022/09/17 02:32:46;;;;;;;7.97;2.90;;;;;;;-145.23;100.00;58621.06;5002474;28;20238;-53
2022/09/17 02:35:13;;;;;;;3.33;2.37;;;;;;;-145.23;100.00;58621.06;5015096;28;20265;-53
2022/09/17 02:37:42;;;;;;;10.23;2.93;;;;;;;-145.23;100.00;58621.06;5012110;28;20675;-53
2022/09/17 02:40:09;;;;;;;8.50;2.73;;;;;;;-145.23;100.00;58621.06;5002482;28;20229;-53
2022/09/17 02:42:57;;;;;;;8.13;2.27;;;;;;;-145.23;100.00;58621.06;5004288;28;20224;-52
2022/09/17 02:45:32;;;;;;;8.07;2.47;;;;;;;-145.23;100.00;58621.06;5018106;28;20225;-52
2022/09/17 02:48:07;;;;;;;3.33;2.80;;;;;;;-145.23;100.00;58621.06;5010070;28;20248;-52
2022/09/17 02:50:42;;;;;;;8.87;3.30;;;;;;;-145.23;100.00;58621.06;4998286;28;20241;-52
2022/09/17 02:53:22;;;;;;;5.60;2.57;;;;;;;-145.23;100.00;58621.06;5007498;28;20668;-52
2022/09/17 02:55:52;;;;;;;7.97;3.27;;;;;;;-145.23;100.00;58621.06;5000351;28;20611;-52
2022/09/17 02:58:24;;;;;;;6.90;3.07;;;;;;;-145.23;100.00;58621.06;5018627;28;20225;-59
2022/09/17 03:00:51;;;;;;;8.73;2.63;;;;;;;-145.23;100.00;58621.06;4992671;28;20245;-53
2022/09/17 03:03:20;;;;;;;5.70;2.93;;;;;;;-145.23;100.00;58621.06;5008669;28;20238;-53
2022/09/17 03:05:47;;;;;;;7.73;2.87;;;;;;;-145.23;100.00;58621.06;5008623;28;20237;-53
2022/09/17 03:08:19;;;;;;;2.77;2.03;;;;;;;-145.23;100.00;58621.06;5004515;28;20275;-52
2022/09/17 03:10:47;;;;;;;4.00;2.50;;;;;;;-145.23;100.00;58621.06;5011446;28;20612;-54
2022/09/17 03:13:15;;;;;;;7.20;3.30;;;;;;;-145.23;100.00;58621.06;5008574;28;20228;-52
2022/09/17 03:15:41;;;;;;;7.57;2.90;;;;;;;-145.23;100.00;58621.06;4999510;28;20241;-53
2022/09/17 03:18:08;;;;;;;6.70;3.33;;;;;;;-145.23;100.00;58621.06;4993755;28;20244;-52
2022/09/17 03:20:34;;;;;;;5.33;2.53;;;;;;;-145.23;100.00;58621.06;5001003;28;20999;-53
2022/09/17 03:23:01;;;;;;;6.00;2.30;;;;;;;-145.23;100.00;58621.06;4995458;28;20346;-52
2022/09/17 03:25:28;;;;;;;4.37;1.97;;;;;;;-145.23;100.00;58621.06;4994861;28;20321;-53
2022/09/17 03:27:55;;;;;;;6.97;2.60;;;;;;;-145.23;100.00;58621.06;5006712;28;20238;-53
2022/09/17 03:30:21;;;;;;;3.73;2.27;;;;;;;-145.23;100.00;58621.06;5003951;28;20741;-53
2022/09/17 03:32:48;;;;;;;4.93;2.67;;;;;;;-145.23;100.00;58621.06;4998678;28;20279;-53
2022/09/17 03:35:14;;;;;;;6.87;2.70;;;;;;;-145.23;100.00;58621.06;4992854;28;20245;-53
2022/09/17 03:37:41;;;;;;;8.30;3.03;;;;;;;-145.23;100.00;58621.06;5007798;28;20237;-53
2022/09/17 03:40:09;;;;;;;4.83;1.93;;;;;;;-145.23;100.00;58621.06;5003779;28;20241;-54
2022/09/17 03:42:37;;;;;;;7.07;2.07;;;;;;;-145.23;100.00;58621.06;4998454;28;20228;-52
2022/09/17 03:45:03;;;;;;;3.20;1.80;;;;;;;-145.23;100.00;58621.06;5009949;28;20234;-52
2022/09/17 03:47:30;;;;;;;6.90;2.30;;;;;;;-145.23;100.00;58621.06;5010628;28;20235;-53
2022/09/17 03:49:57;;;;;;;4.93;2.53;;;;;;;-145.23;100.00;58621.06;4993585;28;20785;-53
2022/09/17 03:52:23;;;;;;;6.67;2.90;;;;;;;-145.23;100.00;58621.06;4998220;28;20240;-52
2022/09/17 03:54:50;;;;;;;4.70;2.37;;;;;;;-145.23;100.00;58621.06;5001120;28;20247;-53
2022/09/17 03:57:16;;;;;;;9.05;3.30;;;;;;;-145.23;100.00;58621.06;5001008;28;20287;-52
2022/09/17 03:59:44;;;;;;;4.80;2.30;;;;;;;-145.23;100.00;58621.06;5013019;28;20236;-53
2022/09/17 04:02:11;;;;;;;7.82;3.00;;;;;;;-145.23;100.00;58621.06;5001058;28;20233;-52
2022/09/17 04:04:37;;;;;;;6.28;3.40;;;;;;;-145.23;100.00;58621.06;5005144;28;20232;-54
2022/09/17 04:07:04;;;;;;;6.13;2.90;;;;;;;-145.23;100.00;58621.06;5005912;28;20228;-54
2022/09/17 04:09:31;;;;;;;7.53;2.65;;;;;;;-145.23;100.00;58621.06;4998138;28;20238;-52
2022/09/17 04:11:57;;;;;;;8.40;2.80;;;;;;;-145.23;100.00;58621.06;5011535;28;20245;-52
2022/09/17 04:14:24;;;;;;;13.52;2.88;;;;;;;-145.23;100.00;58621.06;5005812;28;20233;-53
2022/09/17 04:16:51;;;;;;;4.20;2.92;;;;;;;-145.23;100.00;58621.06;5001652;28;20925;-53
2022/09/17 04:19:18;;;;;;;4.30;2.17;;;;;;;-145.23;100.00;58621.06;5003500;28;20236;-52
2022/09/17 04:21:44;;;;;;;5.97;2.85;;;;;;;-145.23;100.00;58621.06;5006917;28;20229;-52
2022/09/17 04:24:11;;;;;;;2.23;1.80;;;;;;;-145.23;100.00;58621.06;4996427;28;20904;-52
2022/09/17 04:26:37;;;;;;;4.60;2.30;;;;;;;-145.23;100.00;58621.06;5012832;28;20228;-53
2022/09/17 04:29:04;;;;;;;7.20;2.23;;;;;;;-145.23;100.00;58621.06;5001833;28;20785;-54
2022/09/17 04:31:31;;;;;;;5.80;2.50;;;;;;;-145.23;100.00;58621.06;5009513;28;20253;-53
2022/09/17 04:33:59;;;;;;;4.60;2.50;;;;;;;-145.23;100.00;58621.06;4994432;28;20258;-53
2022/09/17 04:36:25;;;;;;;5.93;2.05;;;;;;;-145.23;100.00;58621.06;5013213;28;20233;-54
2022/09/17 04:38:52;;;;;;;7.03;2.30;;;;;;;-145.23;100.00;58621.06;4993241;28;20719;-53
2022/09/17 04:41:19;;;;;;;2.70;1.93;;;;;;;-145.23;100.00;58621.06;4989291;28;20242;-55
2022/09/17 04:43:45;;;;;;;3.77;2.03;;;;;;;-145.23;100.00;58621.06;4998181;28;20256;-54
2022/09/17 04:46:12;;;;;;;6.10;2.00;;;;;;;-145.23;100.00;58621.06;4997230;28;20312;-54
2022/09/17 04:48:39;;;;;;;5.20;2.60;;;;;;;-145.23;100.00;58621.06;4995239;28;20239;-54
2022/09/17 04:51:07;;;;;;;4.82;1.95;;;;;;;-145.23;100.00;58621.06;4990909;28;20610;-53
2022/09/17 04:53:34;;;;;;;3.70;1.73;;;;;;;-145.23;100.00;58621.06;4993429;28;20226;-54
2022/09/17 04:56:00;;;;;;;5.38;2.42;;;;;;;-145.23;100.00;58621.06;5002016;28;21036;-54
2022/09/17 04:58:29;;;;;;;5.18;2.55;;;;;;;-145.23;100.00;58621.06;5001563;28;20237;-53
2022/09/17 05:00:56;;;;;;;5.60;1.63;;;;;;;-145.23;100.00;58621.06;5007753;28;20236;-52
2022/09/17 05:03:22;;;;;;;8.55;2.75;;;;;;;-145.23;100.00;58621.06;5003162;28;20233;-53
2022/09/17 05:05:49;;;;;;;6.03;2.30;;;;;;;-145.23;100.00;58621.06;5013251;28;20228;-53
2022/09/17 05:08:17;;;;;;;2.42;2.03;;;;;;;-145.23;100.00;58621.06;4998415;28;20236;-53
2022/09/17 05:10:43;;;;;;;4.28;1.70;;;;;;;-145.23;100.00;58621.06;4998987;28;20251;-53
2022/09/17 05:13:12;;;;;;;3.35;2.15;;;;;;;-145.23;100.00;58621.06;4999239;28;20248;-53
2022/09/17 05:15:39;;;;;;;3.00;1.98;;;;;;;-145.23;100.00;58621.06;4995204;28;20247;-53
2022/09/17 05:18:05;;;;;;;8.27;2.73;;;;;;;-145.23;100.00;58621.06;4998866;28;20237;-53
2022/09/17 05:20:32;;;;;;;6.60;1.67;;;;;;;-145.23;100.00;58621.06;5009551;28;20238;-53
2022/09/17 05:22:58;;;;;;;4.13;2.00;;;;;;;-145.23;100.00;58621.06;5006171;28;20232;-53
2022/09/17 05:25:26;;;;;;;7.32;2.30;;;;;;;-145.23;100.00;58621.06;4993230;28;20225;-53
2022/09/17 05:27:53;;;;;;;7.57;2.55;;;;;;;-145.23;100.00;58621.06;4994168;28;20233;-53
2022/09/17 05:30:20;;;;;;;6.22;1.92;;;;;;;-145.23;100.00;58621.06;5003101;28;20252;-54
2022/09/17 05:32:47;;;;;;;1.70;1.60;;;;;;;-145.23;100.00;58621.06;5000007;28;20909;-53
2022/09/17 05:35:17;;;;;;;6.57;2.08;;;;;;;-145.23;100.00;58621.06;4998957;28;20707;-53
2022/09/17 05:37:43;;;;;;;5.13;2.05;;;;;;;-145.23;100.00;58621.06;5001171;28;20248;-53
2022/09/17 05:40:10;;;;;;;6.47;2.17;;;;;;;-145.23;100.00;58621.06;5002775;28;20730;-53
2022/09/17 05:42:38;;;;;;;4.95;2.22;;;;;;;-145.23;100.00;58621.06;4991971;28;20738;-53
2022/09/17 05:45:06;;;;;;;4.88;1.98;;;;;;;-145.23;100.00;58621.06;4998654;28;20241;-53
2022/09/17 05:47:34;;;;;;;7.90;2.90;;;;;;;-145.23;100.00;58621.06;5000112;28;20221;-52
2022/09/17 05:50:00;;;;;;;7.72;2.63;;;;;;;-145.23;100.00;58621.06;5014306;28;20255;-53
2022/09/17 05:52:27;;;;;;;7.47;2.97;;;;;;;-145.23;100.00;58621.06;4999077;28;20242;-53
2022/09/17 05:54:54;;;;;;;4.43;2.40;;;;;;;-145.23;100.00;58621.06;4992766;28;20238;-53
2022/09/17 05:57:21;;;;;;;4.05;2.20;;;;;;;-145.23;100.00;58621.06;4999814;28;20268;-53
2022/09/17 05:59:48;;;;;;;7.03;3.00;;;;;;;-145.23;100.00;58621.06;5000724;28;20740;-53
2022/09/17 06:02:15;;;;;;;10.48;4.68;;;;;;;-145.23;100.00;58621.06;4985139;28;20675;-53
2022/09/17 06:04:41;;;;;;;6.55;4.22;;;;;;;-145.23;100.00;58621.06;5002627;28;23088;-54
2022/09/17 06:07:08;;;;;;;10.07;5.63;;;;;;;-145.23;100.00;58621.06;4987693;28;20324;-53
2022/09/17 06:09:35;;;;;;;4.18;3.78;;;;;;;-145.23;100.00;58621.06;4989264;28;20306;-53
2022/09/17 06:12:02;;;;;;;7.60;4.30;;;;;;;-145.23;100.00;58621.06;4988640;28;20904;-53
2022/09/17 06:14:29;;;;;;;9.55;5.10;;;;;;;-145.23;100.00;58621.06;4991144;28;20233;-53
2022/09/17 06:16:57;;;;;;;7.47;4.25;;;;;;;-145.23;100.00;58621.06;4986239;28;20813;-53
2022/09/17 06:19:24;;;;;;;11.90;3.95;;;;;;;-145.23;100.00;58621.06;4990714;28;20242;-54
2022/09/17 06:21:50;;;;;;;13.35;5.47;;;;;;;-145.23;100.00;58621.06;5007565;28;20233;-54
2022/09/17 06:24:17;;;;;;;9.15;4.85;;;;;;;-145.23;100.00;58621.06;4992401;28;20322;-53
2022/09/17 06:26:43;;;;;;;9.07;5.45;;;;;;;-145.23;100.00;58621.06;4994665;28;20226;-52
2022/09/17 06:29:10;;;;;;;9.15;5.03;;;;;;;-145.23;100.00;58621.06;4989641;28;20252;-53
2022/09/17 06:31:36;;;;;;;11.83;5.93;;;;;;;-145.23;100.00;58621.06;5007168;28;20237;-52
2022/09/17 06:34:05;;;;;;;9.48;5.03;;;;;;;-145.23;100.00;58621.06;4995872;28;20236;-53
2022/09/17 06:36:31;;;;;;;16.30;4.82;;;;;;;-145.23;100.00;58621.06;4997981;28;20238;-52
2022/09/17 06:38:58;;;;;;;13.38;5.50;;;;;;;-145.23;100.00;58621.06;4991015;28;20233;-52
2022/09/17 06:41:24;;;;;;;10.88;4.88;;;;;;;-145.23;100.00;58621.06;5001834;28;20269;-52
2022/09/17 06:43:52;;;;;;;11.43;5.40;;;;;;;-145.23;100.00;58621.06;4988182;28;20230;-55
2022/09/17 06:46:19;;;;;;;13.63;4.72;;;;;;;-145.23;100.00;58621.06;5002574;28;20237;-54
2022/09/17 06:48:45;;;;;;;14.90;5.13;;;;;;;-145.23;100.00;58621.06;4995138;28;20712;-54
2022/09/17 06:51:13;;;;;;;9.55;4.22;;;;;;;-145.23;100.00;58621.06;5006546;28;20409;-54
2022/09/17 06:53:40;;;;;;;10.52;4.95;;;;;;;-145.23;100.00;58621.06;5000996;28;20304;-52
2022/09/17 06:56:08;;;;;;;8.23;4.43;;;;;;;-145.23;100.00;58621.06;5003679;28;20236;-52
2022/09/17 06:58:36;;;;;;;11.75;4.70;;;;;;;-145.23;100.00;58621.06;5000601;28;20230;-52
2022/09/17 07:01:04;;;;;;;10.25;3.72;;;;;;;-145.23;100.00;58621.06;5003955;28;20824;-52
2022/09/17 07:03:31;;;;;;;12.50;3.55;;;;;;;-145.23;100.00;58621.06;5008246;28;20236;-52
2022/09/17 07:05:58;;;;;;;9.85;3.35;;;;;;;-145.23;100.00;58621.06;5007384;28;20232;-54
2022/09/17 07:08:26;;;;;;;8.93;4.85;;;;;;;-145.23;100.00;58621.06;4996889;28;20241;-52
2022/09/17 07:10:55;;;;;;;16.67;3.70;;;;;;;-145.23;100.00;58621.06;5010203;28;20303;-55
2022/09/17 07:13:21;;;;;;;9.93;3.60;;;;;;;-145.23;100.00;58621.06;5000915;28;20238;-52
2022/09/17 07:15:53;;;;;;;6.85;4.18;;;;;;;-145.23;100.00;58621.06;4989582;28;20237;-54
2022/09/17 07:18:19;;;;;;;11.65;4.10;;;;;;;-145.23;100.00;58621.06;4995516;28;20308;-52
2022/09/17 07:20:52;;;;;;;9.23;3.47;;;;;;;-145.23;100.00;58621.06;4995296;28;20233;-52
2022/09/17 07:23:19;;;;;;;7.65;3.55;;;;;;;-145.23;100.00;58621.06;4991023;28;20222;-52
2022/09/17 07:25:51;;;;;;;9.00;3.50;;;;;;;-145.23;100.00;58621.06;5002163;28;20233;-54
2022/09/17 07:28:18;;;;;;;7.18;2.97;;;;;;;-145.23;100.00;58621.06;4998013;28;20242;-52
2022/09/17 07:30:44;;;;;;;6.18;3.75;;;;;;;-145.23;100.00;58621.06;4992807;28;20229;-52
2022/09/17 07:33:11;;;;;;;9.43;3.97;;;;;;;-145.23;100.00;58621.06;5000060;28;20241;-54
2022/09/17 07:35:37;;;;;;;10.98;3.92;;;;;;;-145.23;100.00;58621.06;4994372;28;20236;-53
2022/09/17 07:38:04;;;;;;;13.95;3.65;;;;;;;-145.23;100.00;58621.06;4992981;28;20240;-53
2022/09/17 07:40:30;;;;;;;7.72;2.08;;;;;;;-145.23;100.00;58621.06;4997228;28;20540;-53
2022/09/17 07:42:58;;;;;;;14.30;3.33;;;;;;;-145.23;100.00;58621.06;4992533;28;20263;-53
2022/09/17 07:45:25;;;;;;;12.05;3.70;;;;;;;-145.23;100.00;58621.06;4991346;28;20237;-53
2022/09/17 07:47:51;;;;;;;9.40;2.60;;;;;;;-145.23;100.00;58621.06;4992871;28;20234;-53
2022/09/17 07:50:18;;;;;;;10.68;2.88;;;;;;;-145.23;100.00;58621.06;4988157;28;20233;-53
2022/09/17 07:52:46;;;;;;;11.27;3.03;;;;;;;-145.23;100.00;58621.06;4997226;28;20233;-54
2022/09/17 07:55:12;;;;;;;11.90;4.07;;;;;;;-145.23;100.00;58621.06;4990119;28;20232;-54
2022/09/17 07:57:39;;;;;;;7.35;3.08;;;;;;;-145.23;100.00;58621.06;4985521;28;20249;-53
2022/09/17 08:00:08;;;;;;;5.90;2.70;;;;;;;-145.23;100.00;58621.06;4993858;28;20316;-59
2022/09/17 08:02:35;;;;;;;11.18;3.28;;;;;;;-145.23;100.00;58621.06;4988342;28;20822;-53
2022/09/17 08:05:01;;;;;;;8.90;2.70;;;;;;;-145.23;100.00;58621.06;4993717;28;20232;-54
2022/09/17 08:07:28;;;;;;;11.35;2.72;;;;;;;-145.23;100.00;58621.06;4987899;28;20233;-51
2022/09/17 08:09:54;;;;;;;9.73;2.75;;;;;;;-145.23;100.00;58621.06;4989976;28;20238;-52
2022/09/17 08:12:21;;;;;;;14.63;3.58;;;;;;;-145.23;100.00;58621.06;4994478;28;20329;-52
2022/09/17 08:14:48;;;;;;;9.93;2.58;;;;;;;-145.23;100.00;58621.06;4990457;28;20241;-54
2022/09/17 08:17:16;;;;;;;5.22;3.05;;;;;;;-145.23;100.00;58621.06;5006495;28;20255;-52
2022/09/17 08:19:42;;;;;;;6.50;2.72;;;;;;;-145.23;100.00;58621.06;4990541;28;20234;-54
2022/09/17 08:22:09;;;;;;;6.65;2.13;;;;;;;-145.23;100.00;58621.06;5002699;28;20232;-53
2022/09/17 08:24:35;;;;;;;10.88;3.15;;;;;;;-145.23;100.00;58621.06;4996741;28;21238;-52
2022/09/17 08:27:02;;;;;;;3.85;1.85;;;;;;;-145.23;100.00;58621.06;4989403;28;20229;-53
2022/09/17 08:29:28;;;;;;;8.23;3.40;;;;;;;-145.23;100.00;58621.06;4988624;28;20856;-53
2022/09/17 08:31:55;;;;;;;5.00;2.00;;;;;;;-145.23;100.00;58621.06;4994863;28;20793;-52
2022/09/17 08:34:23;;;;;;;8.02;2.78;;;;;;;-145.23;100.00;58621.06;5000052;28;20259;-53
2022/09/17 08:36:50;;;;;;;8.48;2.30;;;;;;;-145.23;100.00;58621.06;5007725;28;20245;-52
2022/09/17 08:39:17;;;;;;;6.50;2.38;;;;;;;-145.23;100.00;58621.06;4998793;28;20622;-52
2022/09/17 08:41:54;;;;;;;5.28;2.25;;;;;;;-145.23;100.00;58621.06;5000051;28;20320;-52
2022/09/17 08:44:26;;;;;;;5.82;1.98;;;;;;;-145.23;100.00;58621.06;4993926;28;20230;-52
2022/09/17 08:46:58;;;;;;;7.35;2.35;;;;;;;-145.23;100.00;58621.06;4993534;28;20237;-53
2022/09/17 08:49:32;;;;;;;10.10;2.17;;;;;;;-145.23;100.00;58621.06;5001075;28;20265;-54
2022/09/17 08:52:33;;;;;;;6.75;2.55;;;;;;;-145.23;100.00;58621.06;4996723;28;20231;-54
2022/09/17 08:55:05;;;;;;;5.93;2.35;;;;;;;-145.23;100.00;58621.06;4991829;28;20233;-52
2022/09/17 08:57:38;;;;;;;8.07;2.40;;;;;;;-145.23;100.00;58621.06;4993861;28;20233;-52
2022/09/17 09:00:10;;;;;;;9.25;3.00;;;;;;;-145.23;100.00;58621.06;4990959;28;20236;-52
2022/09/17 09:02:48;;;;;;;7.78;3.30;;;;;;;-145.23;100.00;58621.06;4998348;28;20225;-52
2022/09/17 09:05:18;;;;;;;6.10;2.17;;;;;;;-145.23;100.00;58621.06;4989166;28;20241;-54
2022/09/17 09:07:47;;;;;;;6.18;2.63;;;;;;;-145.23;100.00;58621.06;4991258;28;20233;-54
2022/09/17 09:10:18;;;;;;;8.73;2.45;;;;;;;-145.23;100.00;58621.06;4992388;28;20233;-53
2022/09/17 09:12:45;;;;;;;5.32;2.05;;;;;;;-145.23;100.00;58621.06;4991368;28;20601;-54
2022/09/17 09:15:34;;;;;;;8.80;2.78;;;;;;;-145.23;100.00;58621.06;4990234;28;20258;-53
2022/09/17 09:18:03;;;;;;;7.10;3.15;;;;;;;-145.23;100.00;58621.06;4995563;28;20230;-53
2022/09/17 09:20:40;;;;;;;7.78;1.90;;;;;;;-145.23;100.00;58621.06;4984192;28;20241;-53
2022/09/17 09:23:11;;;;;;;16.02;2.85;;;;;;;-145.23;100.00;58621.06;4982527;28;20225;-53
2022/09/17 09:25:44;;;;;;;8.02;2.75;;;;;;;-145.23;100.00;58621.06;4990111;28;20233;-54
2022/09/17 09:28:29;;;;;;;6.60;2.30;;;;;;;-145.23;100.00;58621.06;4994110;28;20294;-53
2022/09/17 09:31:08;;;;;;;8.98;2.65;;;;;;;-145.23;100.00;58621.06;4987305;28;20799;-52
2022/09/17 09:33:37;;;;;;;8.05;2.08;;;;;;;-145.23;100.00;58621.06;4995550;28;20232;-52
2022/09/17 09:36:08;;;;;;;4.35;2.00;;;;;;;-145.23;100.00;58621.06;4990552;28;20225;-53
2022/09/17 09:38:38;;;;;;;7.00;2.38;;;;;;;-145.23;100.00;58621.06;5000396;28;20241;-53
2022/09/17 09:41:08;;;;;;;3.42;2.10;;;;;;;-145.23;100.00;58621.06;5006543;28;20229;-54
2022/09/17 09:43:39;;;;;;;5.88;2.50;;;;;;;-145.23;100.00;58621.06;5006739;28;20233;-53
2022/09/17 09:46:31;;;;;;;6.50;2.53;;;;;;;-145.23;100.00;58621.06;5007570;28;20315;-53
2022/09/17 09:49:05;;;;;;;3.33;2.10;;;;;;;-145.23;100.00;58621.06;5002131;28;20238;-54
2022/09/17 09:51:41;;;;;;;3.22;2.13;;;;;;;-145.23;100.00;58621.06;4984576;28;20243;-52
2022/09/17 09:54:26;;;;;;;5.78;2.58;;;;;;;-145.23;100.00;58621.06;5006284;28;20230;-53
2022/09/17 09:56:57;;;;;;;6.38;2.38;;;;;;;-145.23;100.00;58621.06;5002940;28;20229;-52
2022/09/17 09:59:24;;;;;;;7.57;2.38;;;;;;;-145.23;100.00;58621.06;5008091;28;20243;-54
2022/09/17 10:01:51;;;;;;;4.57;2.22;;;;;;;-145.23;100.00;58621.06;5000436;28;20225;-51
2022/09/17 10:04:20;;;;;;;5.43;1.67;;;;;;;-145.23;100.00;58621.06;4987465;28;20225;-53
2022/09/17 10:06:51;;;;;;;5.60;1.90;;;;;;;-145.23;100.00;58621.06;4992441;28;20312;-51
2022/09/17 10:09:21;;;;;;;3.58;1.20;;;;;;;-145.23;100.00;58621.06;4994203;28;20646;-54
2022/09/17 10:12:00;;;;;;;7.88;1.77;;;;;;;-145.23;100.00;58621.06;4988360;28;20719;-53
2022/09/17 10:14:29;;;;;;;4.82;2.17;;;;;;;-145.23;100.00;58621.06;4989670;28;20706;-54
2022/09/17 10:17:27;;;;;;;8.07;1.85;;;;;;;-145.23;100.00;58621.06;4998117;28;20244;-54
2022/09/17 10:20:13;;;;;;;8.50;2.92;;;;;;;-145.23;100.00;58621.06;4910181;29;20263;-51
2022/09/17 10:22:43;;;;;;;7.55;2.28;;;;;;;-145.23;100.00;58621.06;4989062;28;20235;-52
2022/09/17 10:25:23;;;;;;;3.22;1.58;;;;;;;-145.23;100.00;58621.06;4986484;28;20233;-51
2022/09/17 10:27:50;;;;;;;5.13;1.98;;;;;;;-145.23;100.00;58621.06;4992374;28;20243;-52
2022/09/17 10:30:18;;;;;;;8.55;2.40;;;;;;;-145.23;100.00;58621.06;4988278;28;20341;-52
2022/09/17 10:32:44;;;;;;;2.58;1.70;;;;;;;-145.23;100.00;58621.06;4991072;28;20270;-53
2022/09/17 10:35:26;;;;;;;4.32;1.95;;;;;;;-145.23;100.00;58621.06;5004464;28;20315;-53
2022/09/17 10:37:54;;;;;;;7.00;2.25;;;;;;;-145.23;100.00;58621.06;5020233;28;20247;-52
2022/09/17 10:40:27;;;;;;;6.47;2.30;;;;;;;-145.23;100.00;58621.06;4995544;28;20234;-52
2022/09/17 10:43:17;;;;;;;4.13;1.40;;;;;;;-145.23;100.00;58621.06;4987361;28;20280;-51
2022/09/17 10:45:45;;;;;;;3.92;1.90;;;;;;;-145.23;100.00;58621.06;4991611;28;20768;-51
2022/09/17 10:48:16;;;;;;;4.53;2.05;;;;;;;-145.23;100.00;58621.06;5004198;28;20237;-52
2022/09/17 10:50:48;;;;;;;5.47;1.80;;;;;;;-145.23;100.00;58621.06;4993875;28;20243;-51
2022/09/17 10:53:17;;;;;;;5.57;1.50;;;;;;;-145.23;100.00;58621.06;4991938;28;20324;-52
2022/09/17 10:55:47;;;;;;;8.52;2.80;;;;;;;-145.23;100.00;58621.06;4997013;28;20226;-52
2022/09/17 10:58:24;;;;;;;6.00;1.45;;;;;;;-145.23;100.00;58621.06;4996100;28;20245;-53
2022/09/17 11:01:02;;;;;;;5.60;1.45;;;;;;;-145.23;100.00;58621.06;4984898;28;20767;-53
2022/09/17 11:03:49;;;;;;;6.25;2.25;;;;;;;-145.23;100.00;58621.06;5007409;28;20237;-53
2022/09/17 11:06:47;;;;;;;3.65;1.40;;;;;;;-145.23;100.00;58621.06;4998299;28;20620;-52
2022/09/17 11:09:25;;;;;;;5.70;1.50;;;;;;;-145.23;100.00;58621.06;4994548;28;20237;-52
2022/09/17 11:11:58;;;;;;;3.55;1.30;;;;;;;-145.23;100.00;58621.06;4993510;28;20256;-52
2022/09/17 11:14:47;;;;;;;3.55;1.20;;;;;;;-145.23;100.00;58621.06;4992995;28;20314;-52
2022/09/17 11:17:26;;;;;;;3.60;1.63;;;;;;;-145.23;100.00;58621.06;4998235;28;20314;-51
2022/09/17 11:19:59;;;;;;;3.00;1.40;;;;;;;-145.23;100.00;58621.06;4993515;28;20234;-52
2022/09/17 11:22:32;;;;;;;4.80;1.67;;;;;;;-145.23;100.00;58621.06;5008133;28;20232;-52